createdAt,value
2018-09-20T00:01:55.443Z,18.6
2018-09-20T00:06:57.859Z,18.7
2018-09-20T00:12:00.300Z,18.8
2018-09-20T00:17:02.726Z,18.8
2018-09-20T00:22:05.194Z,18.7
2018-09-20T00:27:07.649Z,18.5
2018-09-20T00:32:10.099Z,18.4
2018-09-20T00:37:12.492Z,18.1
2018-09-20T00:42:15.425Z,18
2018-09-20T00:47:17.397Z,17.8
2018-09-20T00:52:19.853Z,17.7
2018-09-20T00:57:22.333Z,17.5
2018-09-20T01:02:24.817Z,17.5
2018-09-20T01:07:27.153Z,17.4
2018-09-20T01:12:29.593Z,17.3
2018-09-20T01:17:32.012Z,17.2
2018-09-20T01:22:34.485Z,17.2
2018-09-20T01:27:36.900Z,17.1
2018-09-20T01:32:39.511Z,17
2018-09-20T01:37:41.781Z,16.9
2018-09-20T01:42:44.243Z,16.9
2018-09-20T01:47:46.660Z,16.8
2018-09-20T01:52:49.120Z,16.7
2018-09-20T01:57:51.539Z,16.7
2018-09-20T02:02:54.004Z,16.6
2018-09-20T02:07:56.429Z,16.6
2018-09-20T02:12:58.885Z,16.5
2018-09-20T02:18:01.299Z,16.5
2018-09-20T02:23:03.757Z,16.4
2018-09-20T02:28:06.200Z,16.4
2018-09-20T02:33:08.709Z,16.3
2018-09-20T02:38:11.062Z,16.3
2018-09-20T02:43:13.640Z,16.2
2018-09-20T02:48:15.962Z,16.2
2018-09-20T02:53:18.412Z,16.1
2018-09-20T02:58:20.838Z,16
2018-09-20T03:03:23.406Z,16
2018-09-20T03:08:25.732Z,16
2018-09-20T03:13:28.278Z,15.9
2018-09-20T03:18:30.607Z,15.9
2018-09-20T03:23:33.049Z,15.9
2018-09-20T03:28:35.495Z,15.8
2018-09-20T03:33:38.017Z,15.8
2018-09-20T03:38:40.580Z,15.8
2018-09-20T03:43:42.810Z,15.8
2018-09-20T03:48:45.240Z,15.8
2018-09-20T03:53:47.688Z,15.8
2018-09-20T03:58:50.204Z,15.8
2018-09-20T04:03:52.943Z,15.8
2018-09-20T04:08:54.996Z,15.7
2018-09-20T04:13:57.669Z,15.6
2018-09-20T04:19:00.188Z,15.6
2018-09-20T04:24:07.389Z,15.5
2018-09-20T04:29:04.834Z,15.5
2018-09-20T04:34:07.427Z,15.5
2018-09-20T04:39:09.730Z,15.4
2018-09-20T04:44:12.099Z,15.4
2018-09-20T04:49:14.717Z,15.3
2018-09-20T04:54:16.996Z,15.3
2018-09-20T04:59:19.414Z,15.3
2018-09-20T05:04:21.848Z,15.3
2018-09-20T05:09:24.297Z,15.3
2018-09-20T05:14:26.803Z,15.3
2018-09-20T05:19:29.201Z,15.3
2018-09-20T05:24:31.624Z,15.4
2018-09-20T05:29:34.044Z,15.5
2018-09-20T05:34:36.531Z,15.5
2018-09-20T05:39:38.959Z,15.6
2018-09-20T05:44:41.501Z,15.7
2018-09-20T05:49:43.845Z,15.7
2018-09-20T05:54:46.255Z,15.8
2018-09-20T05:59:48.707Z,15.9
2018-09-20T06:04:51.143Z,16
2018-09-20T06:09:53.578Z,16
2018-09-20T06:14:56.015Z,16.1
2018-09-20T06:19:58.457Z,16.1
2018-09-20T06:25:01.189Z,16.2
2018-09-20T06:30:03.352Z,16.3
2018-09-20T06:35:05.874Z,16.4
2018-09-20T06:40:08.390Z,16.6
2018-09-20T06:45:10.667Z,16.8
2018-09-20T06:50:13.166Z,17
2018-09-20T06:55:15.591Z,17.2
2018-09-20T07:00:18.069Z,17.2
2018-09-20T07:05:20.504Z,17.3
2018-09-20T07:10:22.869Z,17.4
2018-09-20T07:15:25.341Z,17.5
2018-09-20T07:20:27.741Z,17.7
2018-09-20T07:25:30.396Z,17.8
2018-09-20T07:30:32.634Z,17.9
2018-09-20T07:35:35.063Z,18.1
2018-09-20T07:40:37.572Z,18.2
2018-09-20T07:45:39.960Z,18.4
2018-09-20T07:50:42.407Z,18.7
2018-09-20T07:55:44.852Z,18.9
2018-09-20T08:51:11.834Z,20.7
2018-09-20T08:56:14.255Z,21
2018-09-20T09:01:16.598Z,21.4
2018-09-20T09:06:19.077Z,21.6
2018-09-20T09:11:21.609Z,21.8
2018-09-20T09:16:23.953Z,22.1
2018-09-20T09:21:26.340Z,22.3
2018-09-20T09:26:28.808Z,22.5
2018-09-20T09:31:31.258Z,22.7
2018-09-20T09:36:33.663Z,22.9
2018-09-20T09:41:36.191Z,23.2
2018-09-20T09:46:38.606Z,23.5
2018-09-20T09:51:41.081Z,23.7
2018-09-20T09:56:43.421Z,23.8
2018-09-20T10:01:45.922Z,23.7
2018-09-20T10:06:48.395Z,23.6
2018-09-20T10:11:50.800Z,23.5
2018-09-20T10:16:53.303Z,23.5
2018-09-20T10:21:55.638Z,23.5
2018-09-20T10:26:58.088Z,23.6
2018-09-20T10:32:00.556Z,23.7
2018-09-20T10:37:03.072Z,23.7
2018-09-20T10:42:05.453Z,23.9
2018-09-20T10:47:07.979Z,24.3
2018-09-20T10:52:10.301Z,24.5
2018-09-20T10:57:12.761Z,25
2018-09-20T11:02:15.401Z,25.3
2018-09-20T11:07:17.669Z,25.1
2018-09-20T11:12:20.061Z,24.9
2018-09-20T11:17:22.515Z,24.5
2018-09-20T11:22:25.080Z,24.3
2018-09-20T11:27:27.416Z,24.3
2018-09-20T11:32:29.835Z,24.4
2018-09-20T11:37:32.324Z,24.8
2018-09-20T11:42:34.776Z,25.6
2018-09-20T11:47:37.252Z,26.2
2018-09-20T11:52:39.607Z,26.9
2018-09-20T11:57:42.306Z,27.9
2018-09-20T12:02:44.486Z,28.8
2018-09-20T12:07:46.921Z,29.3
2018-09-20T12:12:49.392Z,30
2018-09-20T12:17:51.814Z,29.6
2018-09-20T12:22:54.256Z,29.8
2018-09-20T12:27:56.710Z,30.4
2018-09-20T12:32:59.157Z,30.9
2018-09-20T12:38:02.014Z,30.6
2018-09-20T12:43:04.097Z,29.6
2018-09-20T12:48:06.539Z,30.4
2018-09-20T12:53:08.902Z,31.5
2018-09-20T12:58:11.358Z,31.6
2018-09-20T13:03:13.779Z,31.9
2018-09-20T13:08:16.898Z,33.2
2018-09-20T13:13:18.791Z,33.6
2018-09-20T13:18:21.177Z,33.9
2018-09-20T13:23:23.666Z,33.7
2018-09-20T13:28:26.006Z,32.4
2018-09-20T13:33:28.604Z,32.9
2018-09-20T13:38:30.970Z,33.3
2018-09-20T13:43:33.635Z,32.9
2018-09-20T13:48:35.762Z,32.4
2018-09-20T13:53:38.308Z,31.8
2018-09-20T13:58:40.653Z,32.5
2018-09-20T14:03:43.149Z,33.7
2018-09-20T14:08:45.602Z,34.7
2018-09-20T14:13:48.420Z,35.8
2018-09-20T14:18:50.468Z,36.2
2018-09-20T14:23:53.012Z,34.8
2018-09-20T14:28:55.692Z,36.1
2018-09-20T14:33:57.768Z,35
2018-09-20T14:39:00.215Z,36.1
2018-09-20T14:44:02.723Z,37.8
2018-09-20T14:49:05.123Z,38.5
2018-09-20T14:54:07.558Z,38.5
2018-09-20T14:59:10.003Z,38.7
2018-09-20T15:04:12.406Z,38.7
2018-09-20T15:09:14.849Z,38.4
2018-09-20T15:14:17.389Z,37.9
2018-09-20T15:19:19.736Z,36.6
2018-09-20T15:24:22.451Z,35.7
2018-09-20T15:29:24.625Z,36.3
2018-09-20T15:34:27.079Z,35.7
2018-09-20T15:39:29.552Z,34.8
2018-09-20T15:44:32.249Z,33.8
2018-09-20T15:49:34.385Z,33.9
2018-09-20T15:54:36.861Z,33.7
2018-09-20T15:59:39.580Z,33.4
2018-09-20T16:04:41.781Z,33.1
2018-09-20T16:09:44.226Z,32.8
2018-09-20T16:14:46.755Z,31.5
2018-09-20T16:19:49.276Z,30
2018-09-20T16:24:51.589Z,28.8
2018-09-20T16:29:53.919Z,28
2018-09-20T16:34:56.394Z,27.4
2018-09-20T16:39:58.814Z,27
2018-09-20T16:45:01.363Z,26.6
2018-09-20T16:50:03.816Z,26.3
2018-09-20T16:55:06.296Z,26.1
2018-09-20T17:00:08.587Z,25.8
2018-09-20T17:05:11.154Z,25.5
2018-09-20T17:10:13.484Z,25.1
2018-09-20T17:15:15.952Z,24.8
2018-09-20T17:20:18.658Z,24.5
2018-09-20T17:25:21.167Z,24.2
2018-09-20T17:30:23.249Z,24
2018-09-20T17:35:25.709Z,23.8
2018-09-20T17:40:28.153Z,23.6
2018-09-20T17:45:30.597Z,23.5
2018-09-20T17:50:33.075Z,23.2
2018-09-20T17:55:35.479Z,23
2018-09-20T18:00:37.923Z,0
2018-09-20T18:05:40.365Z,22.9
2018-09-20T18:10:42.772Z,22.8
2018-09-20T18:15:45.199Z,22.8
2018-09-20T18:20:47.661Z,22.7
2018-09-20T18:25:50.139Z,22.6
2018-09-20T18:30:52.533Z,22.6
2018-09-20T18:35:55.028Z,22.4
2018-09-20T18:40:57.416Z,22.3
2018-09-20T18:45:59.843Z,22.1
2018-09-20T18:51:02.321Z,22
2018-09-20T18:56:04.749Z,21.9
2018-09-20T19:01:07.412Z,21.8
2018-09-20T19:06:09.631Z,21.9
2018-09-20T19:11:12.160Z,22
2018-09-20T19:16:14.756Z,22
2018-09-20T19:21:16.963Z,22
2018-09-20T19:26:19.502Z,22
2018-09-20T19:31:21.838Z,22
2018-09-20T19:36:24.263Z,21.9
2018-09-20T19:41:26.708Z,21.7
2018-09-20T19:46:29.158Z,21.6
2018-09-20T19:51:31.605Z,21.4
2018-09-20T19:56:34.045Z,21.2
2018-09-20T20:01:36.475Z,21
2018-09-20T20:06:38.909Z,20.9
2018-09-20T20:11:41.412Z,20.8
2018-09-20T20:16:43.807Z,20.6
2018-09-20T20:21:46.290Z,20.5
2018-09-20T20:26:48.676Z,20.5
2018-09-20T20:31:51.206Z,20.5
2018-09-20T20:36:53.583Z,20.4
2018-09-20T20:41:55.990Z,20.3
2018-09-20T20:46:58.435Z,20.2
2018-09-20T20:52:00.920Z,20.1
2018-09-20T20:57:03.338Z,20
2018-09-20T21:02:05.769Z,20
2018-09-20T21:07:08.214Z,19.9
2018-09-20T21:12:10.648Z,19.9
2018-09-20T21:17:13.232Z,19.9
2018-09-20T21:22:15.523Z,19.9
2018-09-20T21:27:17.966Z,19.9
2018-09-20T21:32:20.405Z,19.9
2018-09-20T21:37:22.928Z,19.9
2018-09-20T21:42:25.432Z,19.8
2018-09-20T21:47:27.755Z,19.8
2018-09-20T21:52:30.237Z,19.8
2018-09-20T21:57:32.619Z,19.7
2018-09-20T22:02:35.078Z,19.7
2018-09-20T22:07:37.852Z,19.7
2018-09-20T22:12:39.952Z,19.7
2018-09-20T22:17:42.375Z,19.6
2018-09-20T22:22:44.829Z,19.5
2018-09-20T22:27:47.312Z,19.4
2018-09-20T22:32:49.696Z,19.2
2018-09-20T22:37:52.230Z,19.2
2018-09-20T22:42:54.604Z,19.1
2018-09-20T22:47:57.041Z,19.1
2018-09-20T22:52:59.483Z,19.1
2018-09-20T22:58:02.106Z,19
2018-09-20T23:03:04.367Z,18.9
2018-09-20T23:08:06.807Z,18.9
2018-09-20T23:13:09.227Z,18.9
2018-09-20T23:18:11.714Z,18.9
2018-09-20T23:23:14.114Z,19
2018-09-20T23:28:16.658Z,19
2018-09-20T23:33:19.015Z,18.9
2018-09-20T23:38:21.448Z,18.8
2018-09-20T23:43:23.963Z,18.9
2018-09-20T23:48:26.311Z,19
2018-09-20T23:53:28.765Z,19.1
2018-09-20T23:58:31.209Z,19.1
